Time;durP1;ratioP1;P1;durP2;ratioP2;P2;SDS_P1;SDS_P2;PMS_P1;PMS_P2;Temp;Humidity;BMP_temperature;BMP_pressure;BME280_temperature;BME280_humidity;BME280_pressure;Samples;Min_cycle;Max_cycle;Signal;HPM_P1;HPM_P2
2022/09/09 00:03:45;;;;;;;8.32;5.10;;;;;;;15.72;100.00;100661.28;10588401;28;20042;-70
2022/09/09 00:09:18;;;;;;;7.60;4.60;;;;;;;15.55;100.00;100670.16;10576685;28;20032;-71
2022/09/09 00:14:28;;;;;;;9.23;5.90;;;;;;;15.43;100.00;100673.94;10547914;28;20047;-70
2022/09/09 00:19:45;;;;;;;14.82;5.72;;;;;;;15.29;100.00;100670.59;10588153;28;20066;-70
2022/09/09 00:24:48;;;;;;;8.32;6.03;;;;;;;15.33;100.00;100674.53;10564289;28;20036;-70
2022/09/09 00:29:58;;;;;;;12.95;5.60;;;;;;;15.22;100.00;100668.00;10585953;28;20111;-70
2022/09/09 00:35:12;;;;;;;9.05;6.15;;;;;;;15.14;100.00;100651.13;10587143;28;20063;-71
2022/09/09 00:40:23;;;;;;;5.22;4.72;;;;;;;15.07;100.00;100646.59;10586783;28;20043;-70
2022/09/09 00:45:37;;;;;;;13.07;6.93;;;;;;;14.96;100.00;100650.09;10567910;28;20383;-70
2022/09/09 00:50:57;;;;;;;5.70;5.03;;;;;;;14.90;100.00;100653.78;10567786;28;20027;-70
2022/09/09 00:56:19;;;;;;;11.00;5.43;;;;;;;14.86;100.00;100647.13;10551592;28;20034;-70
2022/09/09 01:01:19;;;;;;;15.75;7.30;;;;;;;14.84;100.00;100638.38;10585377;28;20455;-70
2022/09/09 01:06:33;;;;;;;9.20;7.30;;;;;;;14.85;100.00;100638.13;10550027;28;20032;-70
2022/09/09 01:12:01;;;;;;;10.52;5.53;;;;;;;14.83;100.00;100626.59;10551491;28;20122;-70
2022/09/09 01:17:11;;;;;;;7.47;5.90;;;;;;;14.84;100.00;100624.72;10584688;28;20023;-70
2022/09/09 01:22:21;;;;;;;7.93;6.53;;;;;;;14.83;100.00;100617.59;10586126;28;20110;-70
2022/09/09 01:27:21;;;;;;;10.38;5.60;;;;;;;14.81;100.00;100614.28;10555857;28;20032;-70
2022/09/09 01:32:45;;;;;;;6.70;5.22;;;;;;;14.80;100.00;100609.88;10585554;28;20035;-70
2022/09/09 01:37:45;;;;;;;10.07;5.45;;;;;;;14.76;100.00;100606.78;10584655;28;20028;-70
2022/09/09 01:42:45;;;;;;;11.57;5.30;;;;;;;14.75;100.00;100604.31;10585295;28;20056;-70
2022/09/09 01:47:46;;;;;;;10.15;4.55;;;;;;;14.74;100.00;100592.59;10566079;28;20028;-70
2022/09/09 01:52:47;;;;;;;5.90;3.75;;;;;;;14.75;100.00;100599.69;10583893;28;20055;-71
2022/09/09 01:58:12;;;;;;;5.40;3.25;;;;;;;14.79;100.00;100600.06;10583165;28;20644;-71
2022/09/09 02:03:27;;;;;;;7.07;4.25;;;;;;;14.80;100.00;100599.81;10585828;28;20024;-71
2022/09/09 02:08:34;;;;;;;5.78;2.72;;;;;;;14.73;100.00;100593.63;10582516;28;20032;-71
2022/09/09 02:13:36;;;;;;;6.82;2.70;;;;;;;14.72;100.00;100586.53;10581650;28;20126;-70
2022/09/09 02:18:50;;;;;;;4.20;2.38;;;;;;;14.78;100.00;100584.78;10582508;28;20376;-70
2022/09/09 02:23:51;;;;;;;4.30;2.72;;;;;;;14.78;100.00;100574.69;10564955;28;20024;-70
2022/09/09 02:28:53;;;;;;;8.82;3.55;;;;;;;14.80;100.00;100569.00;10564324;28;20019;-70
2022/09/09 02:33:58;;;;;;;3.15;1.98;;;;;;;14.77;100.00;100564.00;10564858;28;20360;-71
2022/09/09 02:38:59;;;;;;;5.13;3.00;;;;;;;14.72;100.00;100563.91;10553394;28;20112;-70
2022/09/09 02:44:00;;;;;;;3.55;2.17;;;;;;;14.77;100.00;100564.00;10575355;28;20453;-71
2022/09/09 02:49:21;;;;;;;6.55;3.17;;;;;;;14.85;100.00;100569.13;10590842;28;20328;-70
2022/09/09 02:54:33;;;;;;;2.50;1.75;;;;;;;14.87;100.00;100567.03;10550300;28;20043;-70
2022/09/09 02:59:33;;;;;;;2.47;2.25;;;;;;;14.82;100.00;100566.88;10589007;28;20031;-70
2022/09/09 03:04:34;;;;;;;4.35;2.20;;;;;;;14.78;100.00;100560.25;10554937;28;20060;-70
2022/09/09 03:09:34;;;;;;;5.47;2.30;;;;;;;14.81;100.00;100557.03;10590354;28;20456;-70
2022/09/09 03:14:34;;;;;;;2.65;2.20;;;;;;;14.84;100.00;100554.69;10554616;28;20063;-70
2022/09/09 03:19:36;;;;;;;9.35;2.92;;;;;;;14.80;100.00;100542.56;10589455;28;20463;-70
2022/09/09 03:24:36;;;;;;;9.05;2.55;;;;;;;14.75;100.00;100544.34;10589249;28;20035;-70
2022/09/09 03:29:36;;;;;;;3.80;2.30;;;;;;;14.75;100.00;100539.72;10589533;28;20032;-70
2022/09/09 03:34:40;;;;;;;5.28;2.85;;;;;;;14.78;100.00;100546.59;10590029;28;20114;-70
2022/09/09 03:39:40;;;;;;;3.35;2.65;;;;;;;14.79;100.00;100537.34;10589006;28;20055;-70
2022/09/09 03:44:41;;;;;;;4.28;2.40;;;;;;;14.79;100.00;100535.47;10570166;28;20036;-70
2022/09/09 03:49:42;;;;;;;7.72;2.22;;;;;;;14.78;100.00;100538.44;10588294;28;20042;-71
2022/09/09 03:54:42;;;;;;;4.40;2.83;;;;;;;14.83;100.00;100531.19;10588769;28;20489;-70
2022/09/09 03:59:43;;;;;;;2.90;2.70;;;;;;;14.86;100.00;100528.00;10592865;28;20032;-70
2022/09/09 04:04:43;;;;;;;6.07;2.22;;;;;;;14.85;100.00;100530.97;10570764;28;20120;-70
2022/09/09 04:09:44;;;;;;;3.20;2.40;;;;;;;14.85;100.00;100520.06;10588154;28;20451;-70
2022/09/09 04:14:44;;;;;;;2.80;2.42;;;;;;;14.74;100.00;100513.53;10587538;28;20032;-70
2022/09/09 04:19:44;;;;;;;5.97;2.88;;;;;;;14.70;100.00;100509.59;10569455;28;20032;-70
2022/09/09 04:24:45;;;;;;;9.98;3.55;;;;;;;14.70;100.00;100512.31;10586998;28;20424;-70
2022/09/09 04:29:45;;;;;;;3.70;2.78;;;;;;;14.62;100.00;100508.06;10577943;28;20038;-70
2022/09/09 04:34:47;;;;;;;4.93;2.58;;;;;;;14.57;100.00;100507.91;10584982;28;20032;-72
2022/09/09 04:39:47;;;;;;;3.15;2.00;;;;;;;14.54;100.00;100492.03;10587261;28;20059;-71
2022/09/09 04:44:48;;;;;;;6.25;2.67;;;;;;;14.55;100.00;100488.28;10586759;28;20483;-71
2022/09/09 04:49:49;;;;;;;3.13;2.38;;;;;;;14.50;100.00;100493.53;10567762;28;20112;-73
2022/09/09 04:54:49;;;;;;;2.45;2.10;;;;;;;14.49;100.00;100486.44;10586293;28;20532;-70
2022/09/09 04:59:50;;;;;;;5.80;3.40;;;;;;;14.54;100.00;100489.31;10585020;28;20081;-70
2022/09/09 05:04:50;;;;;;;4.57;3.80;;;;;;;14.49;100.00;100494.63;10566889;28;20456;-70
2022/09/09 05:09:51;;;;;;;7.80;3.97;;;;;;;14.45;100.00;100487.94;10567363;28;20371;-71
2022/09/09 05:14:52;;;;;;;6.15;3.70;;;;;;;14.43;100.00;100493.66;10568662;28;20035;-71
2022/09/09 05:19:52;;;;;;;5.55;2.75;;;;;;;14.51;100.00;100483.50;10566489;28;20083;-69
2022/09/09 05:24:53;;;;;;;7.97;3.80;;;;;;;14.53;100.00;100473.22;10565622;28;20171;-70
2022/09/09 05:29:53;;;;;;;10.32;3.88;;;;;;;14.67;100.00;100479.25;10566455;28;20118;-69
2022/09/09 05:34:53;;;;;;;13.20;5.47;;;;;;;14.69;100.00;100482.59;10583885;28;20036;-70
2022/09/09 05:39:54;;;;;;;6.40;4.15;;;;;;;14.80;100.00;100489.94;10565099;28;20105;-70
2022/09/09 05:44:55;;;;;;;11.55;4.03;;;;;;;15.00;100.00;100487.72;10583616;28;20078;-70
2022/09/09 05:49:55;;;;;;;6.38;4.13;;;;;;;15.15;100.00;100508.22;10583845;28;20422;-71
2022/09/09 05:54:56;;;;;;;7.97;3.70;;;;;;;15.27;100.00;100504.41;10565382;28;20069;-70
2022/09/09 05:59:57;;;;;;;5.07;2.67;;;;;;;15.22;100.00;100500.75;10583279;28;20536;-70
2022/09/09 06:04:57;;;;;;;12.25;3.38;;;;;;;15.27;100.00;100503.59;10583426;28;20063;-70
2022/09/09 06:09:58;;;;;;;14.75;3.95;;;;;;;15.32;100.00;100507.28;10565294;28;20059;-70
2022/09/09 06:14:59;;;;;;;7.03;3.28;;;;;;;15.33;100.00;100502.66;10581835;28;20042;-70
2022/09/09 06:19:59;;;;;;;10.05;3.67;;;;;;;15.34;100.00;100512.47;10583358;28;20035;-70
2022/09/09 06:25:00;;;;;;;7.00;3.28;;;;;;;15.37;100.00;100506.53;10581583;28;20046;-70
2022/09/09 06:30:02;;;;;;;12.60;5.13;;;;;;;15.39;100.00;100507.16;10583473;28;20487;-71
2022/09/09 06:35:03;;;;;;;8.63;4.25;;;;;;;15.51;100.00;100505.25;10583042;28;20412;-71
2022/09/09 06:40:04;;;;;;;12.82;4.68;;;;;;;15.46;100.00;100501.56;10563887;28;20058;-70
2022/09/09 06:45:04;;;;;;;8.27;4.40;;;;;;;15.51;100.00;100505.25;10546612;28;20036;-70
2022/09/09 06:50:07;;;;;;;6.50;4.00;;;;;;;15.65;100.00;100499.50;10563526;28;20043;-70
2022/09/09 06:55:08;;;;;;;7.38;3.67;;;;;;;15.74;100.00;100500.84;10582320;28;20032;-71
2022/09/09 07:00:09;;;;;;;11.40;3.35;;;;;;;15.76;100.00;100504.13;10563050;28;20039;-70
2022/09/09 07:05:09;;;;;;;7.53;4.45;;;;;;;15.82;100.00;100503.16;10580413;28;20114;-70
2022/09/09 07:10:10;;;;;;;13.95;4.80;;;;;;;15.78;100.00;100504.72;10583505;28;20031;-70
2022/09/09 07:15:10;;;;;;;15.23;4.53;;;;;;;15.85;100.00;100497.22;10581539;28;20061;-70
2022/09/09 07:20:12;;;;;;;9.93;3.92;;;;;;;15.86;100.00;100501.63;10562917;28;20039;-70
2022/09/09 07:25:14;;;;;;;8.70;4.25;;;;;;;15.78;100.00;100494.63;10587451;28;20031;-71
2022/09/09 07:30:14;;;;;;;3.97;3.58;;;;;;;15.85;100.00;100494.50;10590211;28;20043;-70
2022/09/09 07:35:15;;;;;;;9.80;4.13;;;;;;;15.89;100.00;100492.97;10588867;28;20480;-70
2022/09/09 07:40:15;;;;;;;8.57;4.93;;;;;;;15.98;100.00;100499.66;10569956;28;20131;-70
2022/09/09 07:45:15;;;;;;;14.82;4.65;;;;;;;16.04;100.00;100498.69;10570202;28;20063;-71
2022/09/09 07:50:16;;;;;;;5.97;3.65;;;;;;;16.12;100.00;100496.66;10589484;28;20371;-70
2022/09/09 07:55:16;;;;;;;4.70;3.70;;;;;;;16.23;100.00;100498.50;10587391;28;20138;-70
2022/09/09 08:00:18;;;;;;;13.73;4.13;;;;;;;16.36;100.00;100500.94;10570662;28;20027;-70
2022/09/09 08:05:19;;;;;;;5.57;4.03;;;;;;;16.38;100.00;100501.53;10587537;28;20378;-71
2022/09/09 08:10:19;;;;;;;7.28;3.55;;;;;;;16.35;100.00;100499.28;10587333;28;20046;-70
2022/09/09 08:15:19;;;;;;;7.28;3.47;;;;;;;16.26;100.00;100493.38;10587785;28;20088;-70
2022/09/09 08:20:20;;;;;;;14.07;3.67;;;;;;;16.32;100.00;100504.41;10586407;28;20463;-70
2022/09/09 08:25:20;;;;;;;7.72;3.20;;;;;;;16.29;100.00;100503.00;10568606;28;20043;-70
2022/09/09 08:30:20;;;;;;;13.52;4.60;;;;;;;16.38;100.00;100506.16;10569895;28;20089;-70
2022/09/09 08:35:21;;;;;;;8.07;3.38;;;;;;;16.43;100.00;100515.28;10584969;28;20055;-70
2022/09/09 08:40:24;;;;;;;8.48;3.33;;;;;;;16.54;100.00;100508.09;10585905;28;20158;-70
2022/09/09 08:45:55;;;;;;;4.43;3.08;;;;;;;16.70;100.00;100515.47;10568010;28;20502;-70
2022/09/09 08:51:01;;;;;;;6.72;2.53;;;;;;;16.65;100.00;100503.63;10538289;28;20046;-70
2022/09/09 08:56:11;;;;;;;20.02;4.22;;;;;;;16.69;100.00;100516.56;10568703;28;20494;-70
2022/09/09 09:01:30;;;;;;;5.45;2.90;;;;;;;16.67;100.00;100506.94;10585175;28;20024;-70
2022/09/09 09:06:30;;;;;;;7.53;4.10;;;;;;;16.65;100.00;100520.84;10588457;28;20028;-70
2022/09/09 09:11:54;;;;;;;6.63;3.43;;;;;;;16.64;100.00;100523.84;10566422;28;20027;-70
2022/09/09 09:17:01;;;;;;;6.45;3.75;;;;;;;16.71;100.00;100524.50;10558516;28;20118;-70
2022/09/09 09:22:04;;;;;;;3.70;3.17;;;;;;;16.86;100.00;100519.34;10584423;28;20032;-70
2022/09/09 09:27:12;;;;;;;2.83;2.63;;;;;;;17.06;100.00;100515.25;10585213;28;20051;-70
2022/09/09 09:32:14;;;;;;;8.80;3.65;;;;;;;17.23;100.00;100516.09;10548835;28;20024;-71
2022/09/09 09:37:23;;;;;;;7.78;3.30;;;;;;;17.48;100.00;100512.03;10565694;28;20027;-70
2022/09/09 09:42:23;;;;;;;13.50;3.60;;;;;;;17.10;100.00;100513.69;10549866;28;20051;-71
2022/09/09 09:47:24;;;;;;;3.55;2.90;;;;;;;16.97;100.00;100512.09;10532093;28;20030;-71
2022/09/09 09:52:29;;;;;;;7.70;3.58;;;;;;;16.62;100.00;100521.34;10583947;28;20048;-69
2022/09/09 09:57:30;;;;;;;8.63;3.55;;;;;;;16.02;100.00;100511.78;10565159;28;20046;-68
2022/09/09 10:02:31;;;;;;;8.35;3.70;;;;;;;15.88;100.00;100515.03;10584026;28;20031;-70
2022/09/09 10:07:33;;;;;;;10.02;4.68;;;;;;;15.74;100.00;100514.47;10564945;28;20356;-70
2022/09/09 10:13:00;;;;;;;7.18;3.38;;;;;;;15.81;100.00;100510.53;10564541;28;20038;-71
2022/09/09 10:18:18;;;;;;;9.82;4.28;;;;;;;15.79;100.00;100523.63;10547288;28;20490;-71
2022/09/09 10:23:27;;;;;;;7.25;3.47;;;;;;;15.64;100.00;100503.31;10582680;28;20040;-73
2022/09/09 10:28:54;;;;;;;8.23;4.05;;;;;;;16.02;100.00;100500.03;10583229;28;20028;-73
2022/09/09 10:34:11;;;;;;;6.63;3.67;;;;;;;16.11;100.00;100514.13;10563991;28;20076;-72
2022/09/09 10:39:32;;;;;;;7.47;4.10;;;;;;;16.70;100.00;100512.75;10565246;28;20443;-72
2022/09/09 10:44:51;;;;;;;7.82;3.92;;;;;;;17.01;100.00;100507.00;10548203;28;20471;-72
2022/09/09 10:50:00;;;;;;;4.60;4.25;;;;;;;17.10;100.00;100500.00;10565381;28;20451;-72
2022/09/09 10:55:10;;;;;;;5.47;4.05;;;;;;;17.24;100.00;100495.84;10581060;28;20040;-73
2022/09/09 11:00:19;;;;;;;12.38;4.38;;;;;;;17.40;100.00;100497.72;10569461;28;20055;-72
2022/09/09 11:05:23;;;;;;;3.95;3.10;;;;;;;17.46;100.00;100506.00;10554984;28;20024;-72
2022/09/09 11:10:45;;;;;;;5.68;3.67;;;;;;;17.23;100.00;100493.34;10572628;28;20417;-72
2022/09/09 11:15:49;;;;;;;3.33;3.10;;;;;;;16.96;100.00;100494.06;10555579;28;20035;-73
2022/09/09 11:20:55;;;;;;;10.38;2.90;;;;;;;16.89;100.00;100504.34;10589195;28;20077;-73
2022/09/09 11:25:57;;;;;;;6.20;3.83;;;;;;;16.70;100.00;100504.53;10571217;28;20046;-72
2022/09/09 11:31:01;;;;;;;9.10;4.38;;;;;;;16.48;100.00;100501.69;10554213;28;20043;-71
2022/09/09 11:36:24;;;;;;;4.03;3.60;;;;;;;16.49;100.00;100506.09;10588621;28;20031;-72
2022/09/09 11:41:33;;;;;;;6.75;3.88;;;;;;;16.75;100.00;100506.56;10574008;28;20375;-72
2022/09/09 11:46:36;;;;;;;10.70;4.70;;;;;;;16.99;100.00;100526.38;10569857;28;20447;-72
2022/09/09 11:51:36;;;;;;;5.22;3.45;;;;;;;17.30;100.00;100524.94;10570183;28;20028;-72
2022/09/09 11:56:46;;;;;;;4.28;3.22;;;;;;;17.55;100.00;100526.38;10570339;28;20031;-72
2022/09/09 12:01:50;;;;;;;4.57;3.47;;;;;;;17.65;100.00;100518.31;10570910;28;20023;-72
2022/09/09 12:06:53;;;;;;;4.47;2.92;;;;;;;17.77;100.00;100519.06;10553553;28;20054;-72
2022/09/09 12:12:11;;;;;;;3.00;2.40;;;;;;;17.93;100.00;100520.03;10568323;28;20032;-72
2022/09/09 12:17:14;;;;;;;8.73;3.65;;;;;;;18.00;100.00;100522.63;10569960;28;20076;-73
2022/09/09 12:22:56;;;;;;;3.63;2.88;;;;;;;17.91;100.00;100533.19;10587588;28;20031;-73
2022/09/09 12:28:04;;;;;;;8.88;3.63;;;;;;;17.84;100.00;100522.41;10587708;28;20366;-72
2022/09/09 12:33:13;;;;;;;2.45;2.28;;;;;;;17.76;100.00;100525.56;10568854;28;20416;-72
2022/09/09 12:38:19;;;;;;;8.70;3.40;;;;;;;17.82;100.00;100542.94;10552175;28;20035;-72
2022/09/09 12:43:21;;;;;;;5.78;2.15;;;;;;;17.94;100.00;100538.16;10534838;28;20108;-72
2022/09/09 12:48:21;;;;;;;3.65;2.13;;;;;;;17.75;100.00;100537.59;10534218;28;20443;-72
2022/09/09 12:53:30;;;;;;;2.63;1.88;;;;;;;17.99;100.00;100535.47;10566815;28;20066;-72
2022/09/09 12:58:33;;;;;;;7.15;2.70;;;;;;;18.19;100.00;100542.25;10584338;28;20028;-72
2022/09/09 13:03:33;;;;;;;3.72;2.97;;;;;;;18.72;100.00;100532.38;10566659;28;20126;-72
2022/09/09 13:08:34;;;;;;;3.78;2.30;;;;;;;18.64;100.00;100530.13;10585240;28;20024;-72
2022/09/09 13:13:36;;;;;;;5.28;1.58;;;;;;;18.65;100.00;100538.09;10551031;28;20411;-72
2022/09/09 13:18:39;;;;;;;5.47;1.70;;;;;;;18.53;100.00;100542.91;10566683;28;20028;-72
2022/09/09 13:23:39;;;;;;;1.90;1.30;;;;;;;18.17;100.00;100553.50;10549406;28;20383;-72
2022/09/09 13:28:40;;;;;;;5.90;1.95;;;;;;;17.74;100.00;100549.66;10583828;28;20061;-72
2022/09/09 13:33:40;;;;;;;2.67;2.33;;;;;;;17.30;100.00;100560.53;10548852;28;20100;-70
2022/09/09 13:38:54;;;;;;;0.80;0.80;;;;;;;16.61;100.00;100563.44;10581634;28;20076;-71
2022/09/09 13:43:55;;;;;;;1.02;1.02;;;;;;;16.00;100.00;100567.72;10565254;28;20059;-71
2022/09/09 13:49:11;;;;;;;1.27;1.00;;;;;;;15.87;100.00;100562.53;10584965;28;20118;-71
2022/09/09 13:54:15;;;;;;;6.43;1.00;;;;;;;15.91;100.00;100558.25;10583552;28;20027;-72
2022/09/09 13:59:19;;;;;;;3.53;2.33;;;;;;;16.19;100.00;100552.81;10582209;28;20084;-71
2022/09/09 14:04:22;;;;;;;4.03;1.80;;;;;;;16.50;100.00;100545.22;10581516;28;20032;-72
2022/09/09 14:09:24;;;;;;;20.23;2.80;;;;;;;16.83;100.00;100551.81;10583517;28;20475;-72
2022/09/09 14:14:25;;;;;;;3.33;2.97;;;;;;;17.12;100.00;100544.34;10564284;28;20036;-72
2022/09/09 14:19:26;;;;;;;1.80;1.70;;;;;;;17.41;100.00;100537.69;10582497;28;20028;-72
2022/09/09 14:24:27;;;;;;;7.65;2.20;;;;;;;18.04;100.00;100543.75;10563974;28;20031;-72
2022/09/09 14:29:27;;;;;;;11.77;2.83;;;;;;;19.33;100.00;100537.56;10583111;28;20032;-73
2022/09/09 14:34:28;;;;;;;3.15;2.85;;;;;;;20.02;100.00;100548.41;10564093;28;20409;-73
2022/09/09 14:39:29;;;;;;;11.05;2.88;;;;;;;19.65;100.00;100554.81;10564189;28;20130;-73
2022/09/09 14:44:29;;;;;;;2.10;1.50;;;;;;;19.55;100.00;100553.91;10564603;28;20173;-73
2022/09/09 14:49:30;;;;;;;3.60;2.55;;;;;;;19.10;100.00;100558.81;10569339;28;20123;-74
2022/09/09 14:54:31;;;;;;;8.18;2.30;;;;;;;19.18;100.00;100565.75;10563617;28;20050;-74
2022/09/09 14:59:32;;;;;;;8.00;2.45;;;;;;;18.99;100.00;100568.06;10563493;28;20039;-73
2022/09/09 15:04:32;;;;;;;5.85;2.05;;;;;;;18.96;100.00;100572.16;10581365;28;20118;-73
2022/09/09 15:09:33;;;;;;;2.03;1.90;;;;;;;18.81;100.00;100586.56;10564177;28;20036;-73
2022/09/09 15:14:35;;;;;;;7.15;3.22;;;;;;;18.60;100.00;100587.41;10580864;28;20031;-72
2022/09/09 15:19:36;;;;;;;1.90;1.65;;;;;;;18.66;100.00;100578.13;10562522;28;20066;-73
2022/09/09 15:24:37;;;;;;;3.85;2.70;;;;;;;18.43;100.00;100584.75;10581092;28;20039;-72
2022/09/09 15:29:38;;;;;;;5.70;2.20;;;;;;;18.18;100.00;100598.16;10563172;28;20024;-73
2022/09/09 15:34:39;;;;;;;3.75;2.05;;;;;;;17.96;100.00;100603.63;10580911;28;20127;-72
2022/09/09 15:39:40;;;;;;;7.63;3.72;;;;;;;17.32;100.00;100588.44;10580224;28;20062;-72
2022/09/09 15:44:42;;;;;;;7.75;3.63;;;;;;;16.95;100.00;100583.50;10565296;28;20034;-73
2022/09/09 15:49:42;;;;;;;3.25;3.03;;;;;;;17.14;100.00;100595.03;10569552;28;20028;-72
2022/09/09 15:54:43;;;;;;;7.32;3.92;;;;;;;17.53;100.00;100591.50;10588675;28;20039;-72
2022/09/09 15:59:44;;;;;;;11.82;5.10;;;;;;;17.76;100.00;100588.56;10569285;28;20118;-72
2022/09/09 16:04:45;;;;;;;7.78;4.75;;;;;;;17.84;100.00;100579.13;10587684;28;20031;-72
2022/09/09 16:09:45;;;;;;;5.38;4.90;;;;;;;17.79;100.00;100585.34;10569726;28;20426;-73
2022/09/09 16:14:46;;;;;;;8.38;5.78;;;;;;;17.70;100.00;100586.00;10586915;28;20043;-73
2022/09/09 16:19:46;;;;;;;12.90;6.75;;;;;;;17.55;100.00;100592.06;10585201;28;20390;-73
2022/09/09 16:24:47;;;;;;;6.95;5.72;;;;;;;17.44;100.00;100593.84;10569758;28;20169;-73
2022/09/09 16:29:47;;;;;;;9.15;6.93;;;;;;;17.66;100.00;100596.63;10567969;28;20463;-73
2022/09/09 16:34:47;;;;;;;9.35;6.35;;;;;;;17.87;100.00;100598.63;10569977;28;20120;-73
2022/09/09 16:39:48;;;;;;;8.25;5.65;;;;;;;17.89;100.00;100596.44;10586398;28;20051;-73
2022/09/09 16:44:49;;;;;;;9.10;5.80;;;;;;;17.57;100.00;100606.34;10587279;28;20051;-73
2022/09/09 16:49:50;;;;;;;8.55;6.43;;;;;;;17.16;100.00;100602.97;10586170;28;20038;-74
2022/09/09 16:54:50;;;;;;;5.78;3.67;;;;;;;16.97;100.00;100610.59;10584556;28;20024;-74
2022/09/09 16:59:53;;;;;;;6.45;4.50;;;;;;;16.76;100.00;100620.34;10585829;28;20032;-74
2022/09/09 17:04:54;;;;;;;3.80;3.50;;;;;;;16.61;100.00;100630.94;10567791;28;20038;-74
2022/09/09 17:09:54;;;;;;;2.85;2.65;;;;;;;16.57;100.00;100646.19;10585069;28;20036;-74
2022/09/09 17:14:55;;;;;;;3.58;2.65;;;;;;;16.63;100.00;100653.41;10584941;28;20035;-73
2022/09/09 17:19:56;;;;;;;5.95;3.63;;;;;;;16.66;100.00;100648.28;10591533;28;20053;-73
2022/09/09 17:24:56;;;;;;;3.42;3.03;;;;;;;16.64;100.00;100653.16;10585635;28;20181;-73
2022/09/09 17:29:58;;;;;;;10.18;3.70;;;;;;;16.63;100.00;100661.63;10584375;28;20381;-73
2022/09/09 17:34:58;;;;;;;15.05;4.43;;;;;;;16.62;100.00;100651.75;10550565;28;20081;-73
2022/09/09 17:39:59;;;;;;;15.52;6.60;;;;;;;16.61;100.00;100663.75;10566613;28;20071;-73
2022/09/09 17:44:59;;;;;;;8.82;6.18;;;;;;;16.55;100.00;100662.00;10583803;28;20071;-73
2022/09/09 17:50:00;;;;;;;6.55;4.60;;;;;;;16.46;100.00;100669.75;10566938;28;20028;-73
2022/09/09 17:55:00;;;;;;;11.10;3.65;;;;;;;16.40;100.00;100671.56;10583486;28;20431;-73
2022/09/09 18:00:01;;;;;;;7.05;4.10;;;;;;;16.37;100.00;100672.03;10565118;28;20452;-74
2022/09/09 18:05:02;;;;;;;2.38;2.15;;;;;;;16.26;100.00;100681.91;10582963;28;20391;-73
2022/09/09 18:10:02;;;;;;;4.40;3.42;;;;;;;16.23;100.00;100697.94;10565569;28;20481;-73
2022/09/09 18:15:03;;;;;;;5.78;2.67;;;;;;;16.13;100.00;100684.91;10564504;28;20035;-73
2022/09/09 18:20:04;;;;;;;9.50;3.70;;;;;;;16.01;100.00;100684.06;10583410;28;20488;-73
2022/09/09 18:25:05;;;;;;;7.75;3.05;;;;;;;15.96;100.00;100684.81;10581192;28;20202;-73
2022/09/09 18:30:06;;;;;;;2.67;2.28;;;;;;;15.97;100.00;100702.84;10582787;28;20059;-74
2022/09/09 18:35:07;;;;;;;5.05;3.78;;;;;;;16.00;100.00;100704.28;10583730;28;20042;-73
2022/09/09 18:40:07;;;;;;;11.85;4.00;;;;;;;15.99;100.00;100695.25;10582984;28;20158;-72
2022/09/09 18:45:08;;;;;;;9.63;3.35;;;;;;;15.94;100.00;100718.88;10581400;28;20386;-74
2022/09/09 18:50:08;;;;;;;8.55;4.30;;;;;;;15.91;100.00;100716.63;10580549;28;20421;-74
2022/09/09 18:55:09;;;;;;;4.93;3.55;;;;;;;15.91;100.00;100724.81;10563076;28;20387;-73
2022/09/09 19:00:11;;;;;;;9.48;3.20;;;;;;;15.96;100.00;100733.97;10567631;28;20023;-74
2022/09/09 19:05:11;;;;;;;6.22;3.60;;;;;;;15.97;100.00;100732.88;10568708;28;20063;-74
2022/09/09 19:10:12;;;;;;;14.73;4.55;;;;;;;15.94;100.00;100735.25;10586026;28;20035;-74
2022/09/09 19:15:12;;;;;;;9.38;5.28;;;;;;;15.91;100.00;100725.63;10563634;28;20392;-74
2022/09/09 19:20:15;;;;;;;6.13;4.32;;;;;;;15.90;100.00;100726.72;10585127;28;20115;-74
2022/09/09 19:25:15;;;;;;;12.15;5.18;;;;;;;15.90;100.00;100728.63;10589388;28;20050;-75
2022/09/09 19:30:16;;;;;;;9.20;4.75;;;;;;;15.90;100.00;100732.19;10571470;28;20509;-74
2022/09/09 19:35:17;;;;;;;7.78;5.07;;;;;;;15.90;100.00;100750.47;10588436;28;20063;-74
2022/09/09 19:40:20;;;;;;;11.55;4.30;;;;;;;15.85;100.00;100756.63;10589588;28;20055;-74
2022/09/09 19:45:21;;;;;;;5.88;3.63;;;;;;;15.77;100.00;100754.25;10590003;28;20053;-73
2022/09/09 19:50:22;;;;;;;6.07;3.40;;;;;;;15.73;100.00;100767.56;10596748;28;20489;-74
2022/09/09 19:55:24;;;;;;;3.95;2.92;;;;;;;15.71;100.00;100763.38;10576213;28;20035;-74
2022/09/09 20:00:24;;;;;;;9.55;3.75;;;;;;;15.63;100.00;100767.25;10589242;28;20035;-74
2022/09/09 20:05:25;;;;;;;7.25;2.80;;;;;;;15.55;100.00;100771.16;10571780;28;20397;-73
2022/09/09 20:10:25;;;;;;;13.60;3.83;;;;;;;15.50;100.00;100773.72;10586676;28;20046;-74
2022/09/09 20:15:26;;;;;;;7.82;2.75;;;;;;;15.47;100.00;100776.09;10587575;28;20100;-74
2022/09/09 20:20:27;;;;;;;6.55;3.28;;;;;;;15.42;100.00;100778.72;10568994;28;20410;-74
2022/09/09 20:25:28;;;;;;;5.07;3.30;;;;;;;15.37;100.00;100778.56;10568805;28;20459;-74
2022/09/09 20:30:28;;;;;;;5.43;3.60;;;;;;;15.40;100.00;100781.66;10587503;28;20036;-74
2022/09/09 20:35:30;;;;;;;11.77;4.88;;;;;;;15.46;100.00;100786.19;10552223;28;20032;-74
2022/09/09 20:40:31;;;;;;;8.15;5.28;;;;;;;15.53;100.00;100786.91;10586557;28;20372;-74
2022/09/09 20:45:34;;;;;;;5.70;4.25;;;;;;;15.57;100.00;100785.41;10567376;28;20079;-74
2022/09/09 20:50:35;;;;;;;5.82;4.25;;;;;;;15.53;100.00;100781.47;10585375;28;20027;-73
2022/09/09 20:55:36;;;;;;;19.75;4.60;;;;;;;15.52;100.00;100773.50;10586030;28;20466;-74
2022/09/09 21:00:36;;;;;;;5.05;4.53;;;;;;;15.44;100.00;100774.66;10586340;28;20038;-74
2022/09/09 21:05:37;;;;;;;9.70;4.03;;;;;;;15.35;100.00;100771.44;10585620;28;20036;-74
2022/09/09 21:10:45;;;;;;;7.90;4.20;;;;;;;15.29;100.00;100780.56;10585499;28;20067;-73
2022/09/09 21:15:46;;;;;;;18.10;5.93;;;;;;;15.38;100.00;100778.34;10543289;28;20020;-74
2022/09/09 21:20:47;;;;;;;27.75;7.35;;;;;;;15.50;100.00;100767.44;10568705;28;20035;-75
2022/09/09 21:25:48;;;;;;;10.35;5.35;;;;;;;15.53;100.00;100765.09;10587959;28;20040;-75
2022/09/09 21:30:49;;;;;;;8.27;5.38;;;;;;;15.56;100.00;100769.25;10576072;28;20039;-73
2022/09/09 21:35:49;;;;;;;5.13;4.38;;;;;;;15.55;100.00;100773.88;10574656;28;20088;-73
2022/09/09 21:40:50;;;;;;;15.65;6.13;;;;;;;15.61;100.00;100784.94;10585671;28;20104;-73
2022/09/09 21:45:50;;;;;;;15.52;5.75;;;;;;;15.66;100.00;100785.88;10566484;28;20510;-75
2022/09/09 21:50:51;;;;;;;13.52;6.22;;;;;;;15.69;100.00;100779.16;10566473;28;20110;-75
2022/09/09 21:55:51;;;;;;;9.88;4.13;;;;;;;15.74;100.00;100761.00;10585367;28;20106;-78
2022/09/09 22:00:52;;;;;;;16.02;6.32;;;;;;;15.71;100.00;100750.56;10583446;28;20074;-76
2022/09/09 22:05:52;;;;;;;9.48;5.93;;;;;;;15.73;100.00;100747.59;10584452;28;20067;-76
2022/09/09 22:10:53;;;;;;;10.85;5.07;;;;;;;15.77;100.00;100759.72;10548281;28;20123;-75
2022/09/09 22:15:56;;;;;;;8.90;6.28;;;;;;;15.80;100.00;100760.06;10583775;28;20039;-77
2022/09/09 22:20:58;;;;;;;8.93;6.32;;;;;;;15.85;100.00;100780.38;10555086;28;20065;-75
2022/09/09 22:25:59;;;;;;;7.15;5.25;;;;;;;15.88;100.00;100799.84;10566309;28;20035;-75
2022/09/09 22:30:59;;;;;;;6.32;4.90;;;;;;;15.88;100.00;100802.56;10568845;28;20469;-75
2022/09/09 22:36:00;;;;;;;15.40;5.68;;;;;;;15.91;100.00;100807.56;10566027;28;20119;-75
2022/09/09 22:41:01;;;;;;;5.85;4.97;;;;;;;15.87;100.00;100814.56;10582671;28;20074;-75
2022/09/09 22:46:02;;;;;;;9.60;4.30;;;;;;;15.82;100.00;100817.16;10563782;28;20035;-75
2022/09/09 22:51:07;;;;;;;6.05;3.83;;;;;;;15.69;100.00;100811.91;10564396;28;20494;-75
2022/09/09 22:56:11;;;;;;;6.00;3.05;;;;;;;15.57;100.00;100809.09;10570179;28;20038;-75